Time;durP1;ratioP1;P1;durP2;ratioP2;P2;SDS_P1;SDS_P2;PMS_P1;PMS_P2;Temp;Humidity;BMP_temperature;BMP_pressure;BME280_temperature;BME280_humidity;BME280_pressure;Samples;Min_cycle;Max_cycle;Signal;HPM_P1;HPM_P2
2022/07/14 00:00:52;;;;;;;4.83;4.43;;;16.40;99.90;15.80;100067;;;;577485;245;24327;-78
2022/07/14 00:03:20;;;;;;;5.80;4.73;;;16.30;99.90;15.70;100068;;;;565762;248;24111;-82
2022/07/14 00:05:49;;;;;;;7.80;4.37;;;16.20;99.90;15.70;100070;;;;586386;244;24043;-82
2022/07/14 00:08:17;;;;;;;7.33;4.77;;;16.20;99.90;15.60;100079;;;;565534;253;24239;-78
2022/07/14 00:10:44;;;;;;;6.37;4.27;;;16.20;99.90;15.60;100075;;;;586472;244;24068;-78
2022/07/14 00:13:12;;;;;;;4.97;4.57;;;16.20;99.90;15.50;100084;;;;565437;253;24115;-78
2022/07/14 00:15:40;;;;;;;5.33;4.43;;;16.10;99.90;15.50;100073;;;;586609;245;24067;-79
2022/07/14 00:18:12;;;;;;;8.43;4.53;;;16.10;99.90;15.50;100065;;;;557310;254;24155;-79
2022/07/14 00:20:36;;;;;;;9.17;4.87;;;16.10;99.90;15.40;100073;;;;576824;245;24108;-79
2022/07/14 00:23:04;;;;;;;6.97;4.50;;;16.00;99.90;15.40;100055;;;;565575;253;24136;-81
2022/07/14 00:25:33;;;;;;;7.47;4.63;;;15.90;99.90;15.40;100064;;;;586671;244;24079;-81
2022/07/14 00:28:01;;;;;;;9.07;4.50;;;15.90;99.90;15.30;100070;;;;556971;254;24136;-78
2022/07/14 00:30:29;;;;;;;8.27;4.97;;;15.90;99.90;15.40;100068;;;;586559;245;24113;-80
2022/07/14 00:32:56;;;;;;;4.63;4.10;;;15.90;99.90;15.40;100073;;;;564995;253;24160;-80
2022/07/14 00:35:24;;;;;;;4.70;3.70;;;15.90;99.90;15.40;100065;;;;585922;244;24069;-79
2022/07/14 00:37:52;;;;;;;5.67;4.53;;;16.00;99.90;15.30;100065;;;;565031;249;24167;-78
2022/07/14 00:40:20;;;;;;;4.20;3.80;;;15.90;99.90;15.30;100065;;;;585943;244;24054;-79
2022/07/14 00:42:48;;;;;;;6.90;4.17;;;15.90;99.90;15.20;100067;;;;565104;253;24182;-79
2022/07/14 00:45:16;;;;;;;4.80;3.93;;;15.90;99.90;15.20;100063;;;;566951;248;24102;-78
2022/07/14 00:47:48;;;;;;;4.60;4.10;;;15.80;99.90;15.10;100059;;;;576852;245;24171;-79
2022/07/14 00:50:12;;;;;;;6.13;4.10;;;15.70;99.90;15.10;100066;;;;564861;252;24182;-78
2022/07/14 00:52:40;;;;;;;5.43;4.40;;;15.70;99.90;15.00;100063;;;;576970;245;24062;-78
2022/07/14 00:55:12;;;;;;;4.40;3.80;;;15.60;99.90;14.90;100062;;;;575796;244;24118;-79
2022/07/14 00:57:36;;;;;;;9.27;4.57;;;15.50;99.90;14.90;100066;;;;577097;245;24065;-77
2022/07/14 01:00:04;;;;;;;8.50;3.70;;;15.50;99.90;14.80;100060;;;;565433;249;24140;-78
2022/07/14 01:02:31;;;;;;;5.67;4.10;;;15.40;99.90;14.70;100065;;;;577029;245;24120;-77
2022/07/14 01:04:59;;;;;;;8.40;4.67;;;15.30;99.90;14.70;100070;;;;564949;251;24139;-79
2022/07/14 01:07:28;;;;;;;5.70;4.40;;;15.20;99.90;14.60;100074;;;;587376;243;24108;-77
2022/07/14 01:09:56;;;;;;;4.63;4.20;;;15.20;99.90;14.60;100073;;;;566081;248;24114;-77
2022/07/14 01:12:24;;;;;;;4.30;3.40;;;15.10;99.90;14.60;100069;;;;586969;244;24061;-77
2022/07/14 01:14:52;;;;;;;8.87;4.07;;;15.20;99.90;14.50;100074;;;;557444;253;24174;-78
2022/07/14 01:17:20;;;;;;;4.00;3.60;;;15.10;99.90;14.60;100074;;;;586928;244;24127;-78
2022/07/14 01:19:48;;;;;;;5.47;3.60;;;15.10;99.90;14.60;100070;;;;565860;253;24161;-77
2022/07/14 01:22:15;;;;;;;4.90;2.90;;;15.10;99.90;14.50;100073;;;;586924;244;24061;-78
2022/07/14 01:24:43;;;;;;;5.40;3.20;;;15.10;99.90;14.50;100076;;;;557541;253;24104;-77
2022/07/14 01:27:11;;;;;;;4.63;2.83;;;15.10;99.90;14.50;100076;;;;586828;244;24166;-78
2022/07/14 01:29:39;;;;;;;3.00;2.80;;;15.10;99.90;14.50;100069;;;;565481;249;24194;-77
2022/07/14 01:32:07;;;;;;;3.33;2.47;;;15.10;99.90;14.40;100069;;;;577165;245;24072;-77
2022/07/14 01:34:35;;;;;;;8.07;3.00;;;15.00;99.90;14.40;100078;;;;565555;253;24151;-80
2022/07/14 01:37:03;;;;;;;6.53;2.67;;;15.00;99.90;14.40;100080;;;;586630;244;24078;-81
2022/07/14 01:39:31;;;;;;;5.43;2.43;;;15.00;99.90;14.40;100091;;;;576058;248;24114;-78
2022/07/14 01:41:59;;;;;;;6.97;2.93;;;15.00;99.90;14.40;100079;;;;567499;246;24111;-78
2022/07/14 01:44:27;;;;;;;5.23;2.90;;;15.00;99.90;14.30;100082;;;;581022;244;37051;-79
2022/07/14 01:46:55;;;;;;;6.63;2.80;;;14.90;99.90;14.30;100076;;;;565035;249;24108;-80
2022/07/14 01:49:23;;;;;;;4.60;2.60;;;14.90;99.90;14.30;100070;;;;586186;244;24054;-81
2022/07/14 01:51:50;;;;;;;7.20;2.30;;;14.90;99.90;14.30;100081;;;;556861;254;24124;-78
2022/07/14 01:54:18;;;;;;;3.23;2.30;;;14.90;99.90;14.20;100084;;;;586464;245;24106;-78
2022/07/14 01:56:46;;;;;;;5.47;2.70;;;14.80;99.90;14.20;100084;;;;565199;250;24138;-80
2022/07/14 01:59:14;;;;;;;4.73;2.50;;;14.80;99.90;14.10;100088;;;;577343;245;24079;-80
2022/07/14 02:01:46;;;;;;;6.50;2.70;;;14.80;99.90;14.10;100087;;;;565290;253;24111;-79
2022/07/14 02:04:10;;;;;;;9.17;2.97;;;14.70;99.90;14.10;100085;;;;577015;245;24117;-79
2022/07/14 02:06:42;;;;;;;5.10;2.40;;;14.70;99.90;14.10;100092;;;;556427;254;24118;-77
2022/07/14 02:09:09;;;;;;;7.80;2.50;;;14.70;99.90;14.10;100094;;;;577082;245;24099;-78
2022/07/14 02:14:27;;;;;;;3.50;2.10;;;14.60;99.90;13.90;100088;;;;567019;250;24201;-81
2022/07/14 02:16:54;;;;;;;3.03;1.97;;;14.50;99.90;13.90;100080;;;;584342;245;24071;-82
2022/07/14 02:19:23;;;;;;;9.47;2.30;;;14.50;99.90;13.90;100084;;;;567088;252;25159;-80
2022/07/14 02:21:49;;;;;;;3.73;2.03;;;14.50;99.90;13.90;100083;;;;578367;245;24176;-81
2022/07/14 02:24:21;;;;;;;4.67;2.47;;;14.40;99.90;13.80;100085;;;;566080;253;24137;-78
2022/07/14 02:26:45;;;;;;;4.43;2.37;;;14.40;99.90;13.80;100090;;;;577978;245;24118;-79
2022/07/14 02:29:13;;;;;;;6.77;2.93;;;14.40;99.90;13.70;100084;;;;565870;250;24143;-78
2022/07/14 02:31:43;;;;;;;3.13;2.33;;;14.40;99.90;13.70;100089;;;;577058;245;24051;-78
2022/07/14 02:34:10;;;;;;;4.13;2.57;;;14.30;99.90;13.70;100089;;;;566058;253;24189;-78
2022/07/14 02:36:41;;;;;;;6.97;2.40;;;14.30;99.90;13.70;100093;;;;567533;249;24093;-78
2022/07/14 02:39:05;;;;;;;7.37;2.70;;;14.20;99.90;13.60;100094;;;;577333;245;24114;-79
2022/07/14 02:41:33;;;;;;;11.00;2.47;;;14.20;99.90;13.60;100094;;;;565311;253;24115;-79
2022/07/14 02:44:01;;;;;;;5.43;2.10;;;14.20;99.90;13.60;100101;;;;586221;244;24068;-78
2022/07/14 02:46:29;;;;;;;6.03;2.90;;;14.20;99.90;13.60;100111;;;;565307;253;24153;-78
2022/07/14 02:48:57;;;;;;;7.20;2.20;;;14.20;99.90;13.60;100101;;;;586496;245;24064;-77
2022/07/14 02:51:25;;;;;;;9.70;2.30;;;14.20;99.90;13.60;100092;;;;565653;251;24117;-78
2022/07/14 02:53:53;;;;;;;9.27;2.43;;;14.20;99.90;13.60;100090;;;;586404;244;24051;-79
2022/07/14 02:56:21;;;;;;;5.87;2.33;;;14.20;99.90;13.60;100097;;;;565030;250;24128;-78
2022/07/14 02:58:49;;;;;;;4.80;2.20;;;14.20;99.90;13.60;100103;;;;586298;245;24047;-78
2022/07/14 03:01:17;;;;;;;6.03;2.37;;;14.20;99.90;13.60;100112;;;;565404;253;24127;-78
2022/07/14 03:03:45;;;;;;;5.67;2.20;;;14.20;99.90;13.60;100114;;;;577465;245;24054;-79
2022/07/14 03:06:16;;;;;;;6.73;2.10;;;14.20;99.90;13.60;100103;;;;565316;253;24180;-78
2022/07/14 03:08:44;;;;;;;6.07;2.53;;;14.20;99.90;13.60;100117;;;;577444;245;24049;-80
2022/07/14 03:11:12;;;;;;;6.27;2.13;;;14.20;99.90;13.60;100115;;;;565377;249;24121;-81
2022/07/14 03:13:43;;;;;;;5.30;2.77;;;14.20;99.90;13.60;100122;;;;586383;244;24092;-79
2022/07/14 03:16:09;;;;;;;5.00;2.10;;;14.20;99.90;13.70;100113;;;;565184;254;25150;-82
2022/07/14 03:18:42;;;;;;;5.83;1.80;;;14.30;99.90;13.70;100123;;;;577428;245;24069;-81
2022/07/14 03:21:10;;;;;;;7.50;2.30;;;14.30;99.90;13.80;100122;;;;556812;254;24219;-81
2022/07/14 03:23:41;;;;;;;8.47;2.50;;;14.40;99.90;13.80;100122;;;;576383;245;24060;-79
2022/07/14 03:26:06;;;;;;;3.23;1.67;;;14.40;99.90;13.90;100123;;;;556778;253;24143;-79
2022/07/14 03:28:34;;;;;;;4.50;1.63;;;14.50;99.90;14.00;100127;;;;585966;245;24109;-80
2022/07/14 03:31:02;;;;;;;2.10;1.63;;;14.50;99.90;14.40;100131;;;;566291;252;24125;-79
2022/07/14 03:33:30;;;;;;;5.97;1.90;;;14.90;99.90;15.10;100133;;;;577607;245;24082;-80
2022/07/14 03:35:57;;;;;;;10.53;1.97;;;15.50;99.90;16.00;100133;;;;565744;253;24109;-80
2022/07/14 03:38:25;;;;;;;7.10;2.10;;;16.40;99.90;16.90;100132;;;;577903;245;24082;-77
2022/07/14 03:40:54;;;;;;;3.30;1.47;;;18.10;99.90;17.70;100138;;;;565557;248;24128;-78
2022/07/14 03:43:23;;;;;;;8.80;1.80;;;18.80;99.90;18.50;100129;;;;586596;244;25136;-78
2022/07/14 03:45:51;;;;;;;4.40;1.10;;;19.50;99.90;19.00;100133;;;;565638;253;24170;-78
2022/07/14 03:48:20;;;;;;;3.93;1.37;;;19.40;99.90;19.60;100143;;;;586373;244;24051;-79
2022/07/14 03:50:47;;;;;;;5.37;1.23;;;20.20;99.90;20.30;100139;;;;565694;254;24168;-79
2022/07/14 03:53:15;;;;;;;4.37;1.20;;;20.80;99.90;20.80;100143;;;;567379;249;23159;-79
2022/07/14 03:55:47;;;;;;;5.33;1.80;;;21.40;99.90;21.10;100147;;;;586320;244;24059;-79
2022/07/14 03:58:11;;;;;;;9.10;1.40;;;21.80;99.90;21.50;100138;;;;567063;249;24148;-79
2022/07/14 04:00:39;;;;;;;4.43;1.27;;;22.20;99.90;22.10;100130;;;;576691;245;24097;-79
2022/07/14 04:03:07;;;;;;;3.50;1.30;;;22.70;99.90;22.40;100133;;;;565648;253;24155;-79
2022/07/14 04:05:39;;;;;;;6.07;1.40;;;23.10;99.90;22.80;100123;;;;577161;245;24047;-81
2022/07/14 04:08:03;;;;;;;5.70;1.20;;;23.50;99.90;23.00;100122;;;;555313;252;24126;-79
2022/07/14 04:10:30;;;;;;;3.83;1.50;;;23.80;99.90;23.20;100125;;;;567072;250;24108;-78
2022/07/14 04:12:58;;;;;;;11.17;1.63;;;24.10;99.90;23.80;100118;;;;586179;244;24065;-83
2022/07/14 04:15:28;;;;;;;8.23;1.93;;;24.50;99.90;24.20;100122;;;;565000;253;24156;-80
2022/07/14 04:17:54;;;;;;;2.97;1.42;;;25.00;98.20;24.70;100118;;;;580700;245;35091;-79
2022/07/14 04:20:22;;;;;;;6.43;2.00;;;25.50;96.80;25.30;100120;;;;565018;249;24146;-81
2022/07/14 04:22:54;;;;;;;2.47;1.10;;;26.10;94.70;25.80;100116;;;;577413;245;23096;-81
2022/07/14 04:25:18;;;;;;;8.77;1.40;;;26.60;92.30;26.30;100114;;;;557477;253;23183;-82
2022/07/14 04:27:46;;;;;;;2.00;0.97;;;27.20;90.50;26.80;100127;;;;580277;245;24064;-79
2022/07/14 04:30:14;;;;;;;4.37;1.60;;;27.70;85.80;27.00;100119;;;;565334;249;23222;-83
2022/07/14 04:32:42;;;;;;;6.30;1.40;;;28.10;80.60;27.10;100120;;;;567449;250;24138;-82
2022/07/14 04:35:10;;;;;;;7.60;1.67;;;28.20;78.80;27.30;100122;;;;576517;245;23091;-81
2022/07/14 04:37:38;;;;;;;3.93;1.50;;;28.30;78.70;27.80;100126;;;;567204;250;24102;-82
2022/07/14 04:40:06;;;;;;;4.90;1.47;;;28.80;76.40;28.60;100130;;;;585833;245;23068;-80
2022/07/14 04:42:34;;;;;;;15.90;1.90;;;29.50;74.00;29.00;100132;;;;557877;254;23168;-79
2022/07/14 04:45:02;;;;;;;9.50;1.60;;;30.10;69.10;29.30;100130;;;;587146;244;24124;-80
2022/07/14 04:47:30;;;;;;;5.20;1.30;;;30.40;67.90;29.80;100128;;;;565736;253;23125;-80
2022/07/14 04:52:47;;;;;;;9.85;1.45;;;31.80;62.40;30.70;100125;;;;557083;251;23199;-79
2022/07/14 04:55:15;;;;;;;3.20;1.67;;;31.70;61.60;31.10;100128;;;;577526;245;23131;-79
2022/07/14 04:57:43;;;;;;;3.62;1.50;;;32.30;59.20;31.50;100127;;;;557114;254;24191;-80
2022/07/14 05:00:11;;;;;;;3.92;1.15;;;32.70;57.80;31.70;100130;;;;577547;244;23060;-81
2022/07/14 05:02:39;;;;;;;12.70;1.83;;;32.90;56.50;32.00;100132;;;;575927;246;23115;-83
2022/07/14 05:05:07;;;;;;;4.93;1.60;;;33.60;54.90;32.50;100134;;;;586366;244;24051;-83
2022/07/14 05:07:36;;;;;;;5.62;1.52;;;33.80;54.00;32.70;100133;;;;556913;253;23211;-82
2022/07/14 05:10:04;;;;;;;9.38;1.70;;;33.80;54.00;33.30;100133;;;;586134;244;23097;-83
2022/07/14 05:12:35;;;;;;;5.10;1.60;;;34.30;53.00;33.40;100142;;;;556998;254;23141;-80
2022/07/14 05:15:01;;;;;;;2.78;1.27;;;34.60;52.00;33.30;100142;;;;576439;245;23080;-83
2022/07/14 05:17:28;;;;;;;6.50;1.87;;;34.50;51.90;33.50;100147;;;;556894;251;23145;-84
2022/07/14 05:19:56;;;;;;;6.35;1.45;;;34.60;51.10;33.50;100143;;;;586026;244;24074;-82
2022/07/14 05:22:25;;;;;;;5.32;1.60;;;34.50;51.10;33.80;100146;;;;565432;249;23159;-80
2022/07/14 05:24:51;;;;;;;2.30;1.40;;;34.80;50.30;34.40;100147;;;;586361;244;23079;-80
2022/07/14 05:27:20;;;;;;;4.25;1.40;;;35.40;48.80;34.30;100142;;;;557039;254;24171;-83
2022/07/14 05:29:48;;;;;;;4.87;1.45;;;35.30;48.70;34.30;100152;;;;586401;244;23142;-79
2022/07/14 05:32:19;;;;;;;4.22;1.40;;;35.40;48.60;34.60;100150;;;;565365;249;23158;-79
2022/07/14 05:34:44;;;;;;;5.47;2.12;;;35.50;48.40;34.50;100153;;;;574139;245;24098;-80
2022/07/14 05:37:13;;;;;;;4.50;1.45;;;35.50;48.60;34.60;100150;;;;564942;249;23156;-82
2022/07/14 05:39:41;;;;;;;7.65;2.10;;;35.40;48.40;35.10;100162;;;;585922;244;23093;-80
2022/07/14 05:42:08;;;;;;;5.87;1.65;;;35.90;48.00;35.70;100164;;;;565107;253;23131;-80
2022/07/14 05:44:36;;;;;;;12.50;1.92;;;36.50;47.50;35.80;100176;;;;585910;244;23073;-79
2022/07/14 05:47:04;;;;;;;5.10;1.60;;;36.60;46.50;35.60;100173;;;;565161;249;24148;-80
2022/07/14 05:49:32;;;;;;;4.55;1.70;;;36.50;46.70;35.90;100175;;;;577068;245;23172;-79
2022/07/14 05:52:02;;;;;;;4.85;1.77;;;36.70;46.20;36.10;100186;;;;565105;253;23129;-81
2022/07/14 05:54:28;;;;;;;7.18;1.20;;;37.00;45.90;35.40;100188;;;;587453;243;24123;-81
2022/07/14 05:56:56;;;;;;;4.97;1.10;;;36.40;45.40;35.70;100190;;;;565866;251;23132;-80
2022/07/14 05:59:24;;;;;;;8.57;1.52;;;36.40;45.30;34.90;100194;;;;586910;244;23114;-80
2022/07/14 06:01:52;;;;;;;3.72;1.40;;;35.80;45.50;35.50;100195;;;;565662;253;23112;-80
2022/07/14 06:04:20;;;;;;;6.37;1.48;;;36.10;45.70;36.70;100197;;;;586694;244;23079;-79
2022/07/14 06:06:50;;;;;;;7.53;1.35;;;37.00;44.80;37.40;100203;;;;565477;253;24261;-81
2022/07/14 06:09:17;;;;;;;13.27;1.70;;;37.70;43.90;37.90;100201;;;;577228;245;23080;-80
2022/07/14 06:11:45;;;;;;;2.35;1.08;;;39.10;42.60;38.80;100211;;;;565851;253;23115;-81
2022/07/14 06:14:14;;;;;;;8.27;1.87;;;39.40;41.60;38.90;100211;;;;567317;248;23092;-80
2022/07/14 06:16:41;;;;;;;14.40;2.05;;;39.40;41.60;38.20;100206;;;;586330;244;23072;-79
2022/07/14 06:19:09;;;;;;;6.82;1.40;;;39.00;41.20;37.50;100208;;;;565260;249;23130;-80
2022/07/14 06:21:37;;;;;;;6.32;1.80;;;38.40;41.70;37.60;100211;;;;586374;244;24088;-79
2022/07/14 06:24:05;;;;;;;5.45;1.20;;;38.30;42.10;37.80;100210;;;;565652;253;23148;-80
2022/07/14 06:26:34;;;;;;;2.83;1.20;;;38.30;41.70;38.00;100207;;;;577681;245;23057;-80
2022/07/14 06:29:03;;;;;;;3.35;1.30;;;38.40;41.40;37.90;100212;;;;565892;248;24173;-80
2022/07/14 06:31:29;;;;;;;5.28;1.50;;;38.40;42.10;36.00;100213;;;;586262;245;23317;-83
2022/07/14 06:33:56;;;;;;;1.73;1.10;;;37.30;42.20;35.30;100218;;;;565254;251;23187;-81
2022/07/14 06:36:24;;;;;;;3.90;1.15;;;36.20;43.70;36.40;100217;;;;586545;244;24145;-80
2022/07/14 06:38:52;;;;;;;6.20;1.48;;;36.70;44.00;37.60;100218;;;;564934;251;23157;-81
2022/07/14 06:41:23;;;;;;;3.78;1.40;;;37.70;43.30;38.60;100207;;;;586027;244;23065;-80
2022/07/14 06:43:55;;;;;;;8.15;1.45;;;38.70;40.60;38.70;100215;;;;564911;251;27370;-80
2022/07/14 06:46:19;;;;;;;5.30;1.58;;;39.00;40.20;39.40;100213;;;;566872;250;23117;-81
2022/07/14 06:48:47;;;;;;;3.53;1.05;;;39.50;40.30;40.40;100221;;;;585934;244;23061;-85
2022/07/14 06:51:15;;;;;;;5.05;1.55;;;40.50;39.80;39.60;100221;;;;565304;253;23164;-83
2022/07/14 06:53:43;;;;;;;3.53;1.50;;;39.50;39.70;38.90;100216;;;;585917;244;23067;-80
2022/07/14 06:56:12;;;;;;;5.00;1.37;;;39.50;39.70;39.30;100211;;;;564874;253;23214;-83
2022/07/14 06:58:39;;;;;;;3.25;1.23;;;39.70;40.00;40.50;100203;;;;586303;244;23078;-85
2022/07/14 07:01:07;;;;;;;6.93;1.55;;;40.50;39.70;41.20;100203;;;;565267;253;24269;-82
2022/07/14 07:03:35;;;;;;;3.97;1.42;;;41.40;38.20;39.50;100205;;;;586367;244;23163;-85
2022/07/14 07:08:49;;;;;;;6.10;1.15;;;39.30;39.80;39.70;100210;;;;577071;249;23146;-81
2022/07/14 07:11:17;;;;;;;3.78;1.20;;;39.80;40.30;40.30;100200;;;;578206;245;23091;-84
2022/07/14 07:13:44;;;;;;;6.15;1.40;;;40.50;39.50;39.00;100202;;;;566014;253;23153;-83
2022/07/14 07:16:12;;;;;;;5.75;1.37;;;39.80;39.10;37.70;100205;;;;586892;244;23088;-82
2022/07/14 07:18:41;;;;;;;4.72;1.30;;;38.10;40.60;37.30;100206;;;;565833;253;23125;-83
2022/07/14 07:21:10;;;;;;;4.78;1.20;;;37.80;41.00;37.30;100213;;;;586936;244;23102;-81
2022/07/14 07:23:41;;;;;;;4.05;1.15;;;37.80;41.00;37.20;100216;;;;557347;254;23148;-79
2022/07/14 07:26:06;;;;;;;3.28;1.20;;;37.70;41.50;36.50;100217;;;;586082;244;24145;-79
2022/07/14 07:28:36;;;;;;;10.98;1.90;;;37.20;41.20;36.10;100223;;;;556903;254;23171;-79
2022/07/14 07:31:01;;;;;;;4.32;1.12;;;36.50;42.60;37.30;100229;;;;576968;245;23136;-79
2022/07/14 07:33:29;;;;;;;7.65;1.40;;;37.30;42.40;37.60;100228;;;;565214;249;23135;-79
2022/07/14 07:35:58;;;;;;;2.83;1.40;;;37.70;41.50;38.00;100225;;;;586229;244;23072;-79
2022/07/14 07:38:25;;;;;;;5.65;1.67;;;38.00;41.90;39.20;100229;;;;560793;248;46408;-83
2022/07/14 07:40:53;;;;;;;7.43;1.42;;;39.20;40.30;39.40;100234;;;;577074;245;23055;-84
2022/07/14 07:43:21;;;;;;;4.10;1.45;;;39.60;39.40;37.40;100246;;;;565088;253;23132;-84
2022/07/14 07:45:53;;;;;;;4.65;1.70;;;38.50;39.50;34.90;100242;;;;586035;244;23106;-85
2022/07/14 07:48:17;;;;;;;49.28;4.87;;;36.50;41.60;33.00;100242;;;;556928;254;23145;-85
2022/07/14 07:50:45;;;;;;;8.65;1.77;;;34.50;44.00;33.20;100245;;;;579946;245;23076;-84
2022/07/14 07:53:13;;;;;;;7.40;1.52;;;33.80;46.10;34.40;100255;;;;575674;248;24107;-78
2022/07/14 07:55:41;;;;;;;5.85;1.52;;;34.50;44.90;35.50;100250;;;;585963;245;23067;-79
2022/07/14 07:58:08;;;;;;;6.70;1.50;;;35.40;43.90;36.80;100231;;;;554571;254;24159;-84
2022/07/14 08:00:37;;;;;;;2.97;1.50;;;38.30;40.90;38.70;100235;;;;567093;250;23177;-84
2022/07/14 08:03:10;;;;;;;1.92;1.30;;;39.70;39.10;39.80;100232;;;;586031;244;24126;-79
2022/07/14 08:05:34;;;;;;;5.15;1.27;;;39.70;39.10;40.20;100233;;;;565367;254;23118;-81
2022/07/14 08:08:02;;;;;;;8.90;1.25;;;40.20;38.50;40.90;100241;;;;586353;244;23053;-79
2022/07/14 08:10:30;;;;;;;7.05;1.10;;;40.90;36.80;41.80;100242;;;;564982;253;23107;-85
2022/07/14 08:12:57;;;;;;;4.03;1.20;;;42.00;35.80;40.90;100233;;;;586118;244;23080;-81
2022/07/14 08:15:28;;;;;;;4.53;1.60;;;41.50;36.00;39.50;100233;;;;565248;252;23142;-83
2022/07/14 08:17:53;;;;;;;5.10;1.00;;;40.70;35.90;37.10;100229;;;;578071;245;23249;-83
2022/07/14 08:20:21;;;;;;;2.58;1.30;;;38.80;37.20;36.70;100235;;;;561146;248;35517;-85
2022/07/14 08:22:51;;;;;;;3.62;1.05;;;37.60;38.70;38.30;100223;;;;577407;245;23122;-82
2022/07/14 08:25:17;;;;;;;4.30;0.77;;;38.40;38.90;40.20;100241;;;;566232;248;23127;-81
2022/07/14 08:27:45;;;;;;;3.10;1.40;;;40.00;37.10;41.30;100241;;;;568019;249;23168;-80
2022/07/14 08:30:13;;;;;;;1.52;1.02;;;41.20;36.90;42.10;100253;;;;586903;244;23082;-84
2022/07/14 08:32:49;;;;;;;3.55;1.05;;;42.20;35.90;40.50;100249;;;;557521;254;24123;-83
2022/07/14 08:35:15;;;;;;;22.50;2.17;;;41.50;35.40;37.70;100260;;;;581526;244;35129;-85
2022/07/14 08:37:43;;;;;;;3.10;0.98;;;39.50;36.70;37.10;100251;;;;567766;249;23089;-85
2022/07/14 08:40:11;;;;;;;10.25;1.37;;;38.20;38.10;38.40;100245;;;;576285;247;23127;-85
2022/07/14 08:42:39;;;;;;;7.97;1.50;;;39.70;37.40;39.70;100242;;;;567450;249;23159;-83
2022/07/14 08:45:08;;;;;;;2.85;0.70;;;39.70;36.80;40.80;100232;;;;567250;249;23128;-83
2022/07/14 08:47:35;;;;;;;4.72;1.27;;;40.90;35.60;41.80;100250;;;;566962;249;23100;-84
2022/07/14 08:50:06;;;;;;;2.65;1.12;;;42.10;34.70;41.30;100242;;;;567328;248;23090;-82
2022/07/14 08:52:31;;;;;;;3.95;1.25;;;42.10;34.60;39.20;100244;;;;576064;245;23069;-80
2022/07/14 08:54:59;;;;;;;17.92;1.95;;;40.70;35.10;37.20;100255;;;;575693;249;23104;-83
2022/07/14 08:57:30;;;;;;;4.87;1.00;;;38.80;37.20;36.60;100249;;;;576964;245;23133;-80
2022/07/14 08:59:55;;;;;;;2.10;1.00;;;37.60;38.20;37.60;100248;;;;557248;254;23176;-85
2022/07/14 09:02:24;;;;;;;30.27;3.10;;;39.00;37.40;39.10;100252;;;;567137;250;23123;-84
2022/07/14 09:04:52;;;;;;;4.25;1.23;;;40.30;36.00;40.10;100266;;;;585935;244;23113;-82
2022/07/14 09:07:39;;;;;;;2.17;1.05;;;41.00;35.70;40.70;100260;;;;565033;253;23124;-80
2022/07/14 09:10:13;;;;;;;3.72;1.27;;;41.00;35.60;42.20;100254;;;;577407;245;24159;-80
2022/07/14 09:12:44;;;;;;;4.90;1.45;;;42.30;34.90;42.50;100263;;;;556784;252;23196;-83
2022/07/14 09:18:00;;;;;;;4.15;0.85;;;42.50;33.90;40.00;100281;;;;557108;254;23172;-79
2022/07/14 09:20:29;;;;;;;5.55;1.80;;;39.60;36.30;37.90;100259;;;;567160;249;24120;-83
2022/07/14 09:22:57;;;;;;;5.28;1.23;;;39.50;36.20;36.80;100271;;;;576540;245;23110;-82
2022/07/14 09:25:25;;;;;;;8.88;1.35;;;38.20;37.40;35.80;100261;;;;556735;254;23193;-81
2022/07/14 09:27:53;;;;;;;2.35;0.90;;;36.90;38.10;36.30;100259;;;;577814;245;23098;-77
2022/07/14 09:30:21;;;;;;;10.27;1.45;;;36.80;39.10;36.30;100255;;;;566423;253;23182;-80
2022/07/14 09:32:56;;;;;;;6.40;1.17;;;37.00;38.00;34.40;100256;;;;578376;245;23088;-82
2022/07/14 09:35:28;;;;;;;6.37;1.10;;;35.70;39.00;32.70;100255;;;;557693;253;24158;-82
2022/07/14 09:37:56;;;;;;;3.75;1.48;;;33.70;42.10;33.10;100256;;;;566484;248;23154;-84
2022/07/14 09:40:27;;;;;;;3.00;1.17;;;33.60;42.00;34.10;100252;;;;578079;245;24145;-82
2022/07/14 09:43:04;;;;;;;2.67;0.82;;;34.30;42.60;36.80;100265;;;;557466;254;24199;-84
2022/07/14 09:45:35;;;;;;;3.90;1.02;;;36.70;40.40;38.30;100261;;;;586443;244;23085;-85
2022/07/14 09:48:02;;;;;;;8.10;1.25;;;38.40;37.90;37.40;100268;;;;576116;244;23136;-84
2022/07/14 09:50:36;;;;;;;6.07;1.20;;;38.30;37.00;35.50;100275;;;;576142;243;23171;-83
2022/07/14 09:53:22;;;;;;;9.55;1.33;;;37.00;38.20;34.60;100269;;;;567987;248;23097;-79
2022/07/14 09:56:08;;;;;;;10.45;1.58;;;35.80;38.90;34.00;100273;;;;577153;245;23076;-79
2022/07/14 09:58:54;;;;;;;5.30;1.35;;;35.00;40.00;33.20;100267;;;;565697;253;23140;-79
2022/07/14 10:01:19;;;;;;;7.07;1.23;;;34.20;41.10;33.10;100266;;;;586180;245;23099;-82
2022/07/14 10:03:44;;;;;;;3.47;1.15;;;33.80;41.50;33.20;100263;;;;557569;254;24140;-80
2022/07/14 10:06:13;;;;;;;13.20;1.45;;;33.80;41.30;33.30;100268;;;;577472;245;23065;-80
2022/07/14 10:08:43;;;;;;;3.87;1.10;;;33.90;40.50;33.30;100268;;;;566047;253;24168;-82
2022/07/14 10:11:13;;;;;;;1.65;0.90;;;34.30;41.30;33.90;100270;;;;574458;245;23074;-82
2022/07/14 10:13:38;;;;;;;2.15;1.08;;;34.30;40.60;34.30;100265;;;;567531;249;23176;-81
2022/07/14 10:16:06;;;;;;;4.28;1.17;;;34.90;40.70;33.60;100272;;;;566135;248;23134;-83
2022/07/14 10:18:34;;;;;;;10.93;1.37;;;34.60;40.10;32.20;100266;;;;577732;244;23057;-80
2022/07/14 10:21:04;;;;;;;3.97;1.20;;;33.40;41.10;30.60;100265;;;;557406;254;23214;-80
2022/07/14 10:23:29;;;;;;;11.40;1.55;;;31.90;42.70;29.40;100277;;;;586216;245;23077;-83
2022/07/14 10:25:57;;;;;;;4.15;1.52;;;30.40;44.90;28.20;100259;;;;557177;254;24166;-79
2022/07/14 10:28:26;;;;;;;7.53;1.35;;;29.20;47.10;27.40;100270;;;;577018;245;23073;-79
2022/07/14 10:31:24;;;;;;;2.07;0.80;;;28.20;49.20;27.10;100271;;;;566064;253;23128;-76
2022/07/14 10:34:09;;;;;;;5.50;1.13;;;27.70;51.10;27.40;100271;;;;577711;245;24046;-78
2022/07/14 10:36:59;;;;;;;11.70;1.37;;;28.30;50.40;28.10;100266;;;;565003;249;24201;-77
2022/07/14 10:39:49;;;;;;;10.83;1.47;;;29.50;49.40;29.20;100266;;;;576696;245;23075;-80
2022/07/14 10:42:42;;;;;;;3.67;0.90;;;30.30;48.00;29.80;100245;;;;568445;248;23105;-79
2022/07/14 10:45:13;;;;;;;3.62;1.12;;;30.20;47.90;30.10;100253;;;;578122;245;24082;-78
2022/07/14 10:47:48;;;;;;;2.00;1.42;;;30.70;48.30;29.70;100259;;;;557473;254;23186;-79
2022/07/14 10:50:20;;;;;;;7.53;1.30;;;30.40;47.70;29.10;100257;;;;586975;244;24122;-80
2022/07/14 10:52:51;;;;;;;4.57;1.45;;;29.60;48.30;28.50;100261;;;;565506;248;23188;-80
2022/07/14 10:55:26;;;;;;;3.30;1.30;;;28.40;48.60;27.90;100257;;;;567725;248;23148;-80
2022/07/14 10:58:04;;;;;;;2.93;1.20;;;28.30;48.60;27.30;100257;;;;577665;245;23056;-79
2022/07/14 11:00:47;;;;;;;8.33;1.13;;;27.80;49.40;26.80;100256;;;;557398;254;24186;-80
2022/07/14 11:03:25;;;;;;;3.10;0.73;;;27.30;50.80;26.40;100254;;;;577433;245;24106;-80
2022/07/14 11:06:08;;;;;;;1.70;0.73;;;26.80;51.60;26.10;100256;;;;557372;253;23128;-81
2022/07/14 11:08:40;;;;;;;2.67;0.77;;;26.50;52.30;26.00;100259;;;;577880;245;23076;-80
2022/07/14 11:11:08;;;;;;;2.77;0.90;;;26.20;53.90;25.80;100263;;;;576093;244;23103;-80
2022/07/14 11:13:31;;;;;;;4.43;0.80;;;26.10;54.90;25.50;100268;;;;576774;245;24067;-79
2022/07/14 11:16:03;;;;;;;7.77;0.90;;;25.90;54.60;25.50;100271;;;;565336;250;23168;-79
2022/07/14 11:18:33;;;;;;;5.83;1.57;;;25.80;54.30;25.40;100257;;;;586038;245;23072;-79
2022/07/14 11:21:22;;;;;;;3.80;1.03;;;25.80;53.70;25.40;100246;;;;557038;248;23141;-78
2022/07/14 11:23:51;;;;;;;5.83;0.90;;;25.40;53.50;24.90;100250;;;;577202;245;24076;-81
2022/07/14 11:26:47;;;;;;;6.50;1.03;;;25.40;53.50;24.50;100250;;;;565342;253;23143;-79
2022/07/14 11:29:14;;;;;;;3.60;0.70;;;25.00;54.60;24.60;100251;;;;557756;253;24117;-81